createdAt,value
2018-12-21T00:02:06.804Z,12.47
2018-12-21T00:04:34.960Z,9.18
2018-12-21T00:07:03.111Z,9.80
2018-12-21T00:09:31.256Z,11.87
2018-12-21T00:11:59.560Z,11.00
2018-12-21T00:14:27.806Z,7.62
2018-12-21T00:16:55.999Z,12.70
2018-12-21T00:19:24.120Z,8.35
2018-12-21T00:21:52.240Z,12.73
2018-12-21T00:24:20.397Z,11.55
2018-12-21T00:26:48.512Z,11.70
2018-12-21T00:29:16.619Z,11.40
2018-12-21T00:31:50.403Z,13.60
2018-12-21T00:34:23.991Z,9.97
2018-12-21T00:36:58.798Z,9.80
2018-12-21T00:39:32.350Z,13.53
2018-12-21T00:42:00.062Z,8.85
2018-12-21T00:44:30.171Z,6.77
2018-12-21T00:47:01.457Z,13.30
2018-12-21T00:49:29.569Z,10.30
2018-12-21T00:51:57.705Z,10.77
2018-12-21T00:54:25.847Z,7.20
2018-12-21T00:56:53.965Z,11.75
2018-12-21T00:59:22.192Z,10.40
2018-12-21T01:01:50.324Z,10.45
2018-12-21T01:04:18.470Z,12.80
2018-12-21T01:06:46.717Z,9.55
2018-12-21T01:09:14.945Z,13.37
2018-12-21T01:11:43.090Z,13.00
2018-12-21T01:14:11.224Z,10.83
2018-12-21T01:16:39.356Z,10.77
2018-12-21T01:19:07.565Z,9.05
2018-12-21T01:21:38.892Z,10.78
2018-12-21T01:24:05.829Z,13.93
2018-12-21T01:26:33.937Z,9.40
2018-12-21T01:29:02.104Z,11.30
2018-12-21T01:31:30.228Z,10.83
2018-12-21T01:33:58.956Z,9.40
2018-12-21T01:36:27.084Z,10.53
2018-12-21T01:38:55.226Z,8.17
2018-12-21T01:41:23.362Z,8.45
2018-12-21T01:43:51.494Z,8.80
2018-12-21T01:46:19.602Z,9.93
2018-12-21T01:48:47.774Z,10.58
2018-12-21T01:51:16.007Z,9.20
2018-12-21T01:53:44.122Z,10.63
2018-12-21T01:56:12.833Z,10.63
2018-12-21T01:58:40.975Z,6.40
2018-12-21T02:01:09.091Z,12.93
2018-12-21T02:03:37.216Z,9.37
2018-12-21T02:06:05.365Z,6.33
2018-12-21T02:08:33.497Z,9.98
2018-12-21T02:11:01.641Z,7.00
2018-12-21T02:13:29.748Z,14.95
2018-12-21T02:15:57.885Z,10.00
2018-12-21T02:18:26.003Z,6.70
2018-12-21T02:20:54.150Z,6.60
2018-12-21T02:23:22.260Z,9.80
2018-12-21T02:25:50.397Z,8.63
2018-12-21T02:28:18.539Z,9.53
2018-12-21T02:30:46.723Z,10.38
2018-12-21T02:33:14.878Z,12.60
2018-12-21T02:35:43.012Z,9.90
2018-12-21T02:38:11.133Z,6.27
2018-12-21T02:40:39.264Z,10.83
2018-12-21T02:43:07.368Z,7.27
2018-12-21T02:45:35.504Z,7.60
2018-12-21T02:48:03.615Z,6.73
2018-12-21T02:50:31.770Z,7.62
2018-12-21T02:53:00.090Z,7.15
2018-12-21T02:55:28.368Z,9.37
2018-12-21T02:57:56.488Z,9.83
2018-12-21T03:00:24.611Z,8.73
2018-12-21T03:02:52.795Z,6.00
2018-12-21T03:05:20.927Z,7.33
2018-12-21T03:07:49.066Z,6.37
2018-12-21T03:10:17.206Z,6.53
2018-12-21T03:12:45.306Z,4.67
2018-12-21T03:15:13.545Z,8.93
2018-12-21T03:17:41.678Z,7.03
2018-12-21T03:20:09.897Z,8.47
2018-12-21T03:22:38.011Z,4.90
2018-12-21T03:25:06.150Z,6.67
2018-12-21T03:27:34.295Z,6.87
2018-12-21T03:30:02.411Z,7.83
2018-12-21T03:32:30.697Z,8.43
2018-12-21T03:34:58.829Z,8.05
2018-12-21T03:37:26.964Z,4.53
2018-12-21T03:39:55.061Z,8.78
2018-12-21T03:42:23.179Z,9.53
2018-12-21T03:44:51.285Z,6.53
2018-12-21T03:47:19.487Z,6.22
2018-12-21T03:49:47.603Z,9.83
2018-12-21T03:52:24.015Z,6.70
2018-12-21T03:54:45.867Z,7.23
2018-12-21T03:57:13.993Z,4.87
2018-12-21T03:59:42.208Z,11.08
2018-12-21T04:02:10.540Z,8.10
2018-12-21T04:04:38.658Z,5.92
2018-12-21T04:07:06.776Z,5.53
2018-12-21T04:09:35.956Z,5.83
2018-12-21T04:12:04.199Z,6.55
2018-12-21T04:14:32.301Z,4.30
2018-12-21T04:17:00.465Z,8.77
2018-12-21T04:19:28.579Z,7.77
2018-12-21T04:21:56.709Z,10.17
2018-12-21T04:24:24.813Z,8.90
2018-12-21T04:26:52.926Z,6.47
2018-12-21T04:29:21.063Z,7.58
2018-12-21T04:31:50.154Z,7.62
2018-12-21T04:34:18.279Z,5.60
2018-12-21T04:36:46.399Z,10.07
2018-12-21T04:39:14.529Z,8.17
2018-12-21T04:41:42.691Z,6.53
2018-12-21T04:44:10.843Z,7.10
2018-12-21T04:46:38.993Z,4.90
2018-12-21T04:49:07.153Z,4.42
2018-12-21T04:51:35.280Z,9.20
2018-12-21T04:54:03.791Z,5.20
2018-12-21T04:56:31.997Z,4.03
2018-12-21T04:59:00.116Z,3.73
2018-12-21T05:01:28.452Z,6.17
2018-12-21T05:03:56.566Z,4.93
2018-12-21T05:06:24.686Z,4.13
2018-12-21T05:08:52.812Z,4.60
2018-12-21T05:11:20.938Z,6.60
2018-12-21T05:13:49.062Z,6.70
2018-12-21T05:16:18.045Z,4.43
2018-12-21T05:18:46.172Z,3.90
2018-12-21T05:21:14.321Z,4.83
2018-12-21T05:23:42.449Z,6.00
2018-12-21T05:26:10.574Z,3.30
2018-12-21T05:28:38.694Z,3.87
2018-12-21T05:31:06.789Z,5.30
2018-12-21T05:33:34.996Z,6.20
2018-12-21T05:36:03.148Z,5.57
2018-12-21T05:38:31.587Z,5.87
2018-12-21T05:40:59.737Z,5.13
2018-12-21T05:43:27.854Z,4.70
2018-12-21T05:45:55.972Z,6.27
2018-12-21T05:48:24.091Z,6.03
2018-12-21T05:50:52.191Z,7.70
2018-12-21T05:53:20.323Z,3.40
2018-12-21T05:55:48.448Z,8.93
2018-12-21T05:58:16.676Z,4.57
2018-12-21T06:00:45.282Z,4.57
2018-12-21T06:03:13.436Z,4.43
2018-12-21T06:05:41.568Z,2.67
2018-12-21T06:08:09.731Z,4.45
2018-12-21T06:10:37.856Z,3.33
2018-12-21T06:13:06.034Z,8.58
2018-12-21T06:15:34.136Z,5.30
2018-12-21T06:18:02.287Z,2.73
2018-12-21T06:20:30.408Z,4.03
2018-12-21T06:22:59.422Z,2.62
2018-12-21T06:25:27.579Z,4.57
2018-12-21T06:27:55.814Z,4.30
2018-12-21T06:30:23.924Z,7.00
2018-12-21T06:32:52.084Z,2.47
2018-12-21T06:35:20.245Z,2.50
2018-12-21T06:37:48.623Z,5.23
2018-12-21T06:40:16.962Z,3.30
2018-12-21T06:42:45.072Z,2.15
2018-12-21T06:45:13.181Z,4.37
2018-12-21T06:47:41.440Z,7.00
2018-12-21T06:50:09.656Z,2.70
2018-12-21T06:52:37.792Z,1.23
2018-12-21T06:55:06.138Z,1.50
2018-12-21T06:57:34.313Z,3.40
2018-12-21T07:00:02.572Z,1.27
2018-12-21T07:02:30.683Z,3.13
2018-12-21T07:04:58.868Z,1.98
2018-12-21T07:07:27.559Z,0.73
2018-12-21T07:09:55.721Z,1.25
2018-12-21T07:12:23.849Z,3.10
2018-12-21T07:14:51.973Z,5.03
2018-12-21T07:17:20.102Z,2.65
2018-12-21T07:19:48.327Z,1.85
2018-12-21T07:22:16.468Z,2.47
2018-12-21T07:24:44.607Z,2.35
2018-12-21T07:27:12.967Z,0.90
2018-12-21T07:29:41.324Z,1.97
2018-12-21T07:32:09.503Z,1.82
2018-12-21T07:34:37.662Z,1.43
2018-12-21T07:37:05.965Z,3.00
2018-12-21T07:39:34.159Z,1.00
2018-12-21T07:42:02.328Z,1.67
2018-12-21T07:44:30.518Z,2.27
2018-12-21T07:46:58.707Z,1.72
2018-12-21T07:49:26.895Z,2.07
2018-12-21T07:51:55.568Z,1.15
2018-12-21T07:54:23.737Z,1.10
2018-12-21T07:56:51.865Z,1.70
2018-12-21T07:59:19.989Z,0.60
2018-12-21T08:01:48.151Z,1.20
2018-12-21T08:04:16.274Z,1.13
2018-12-21T08:06:44.403Z,0.68
2018-12-21T08:09:12.658Z,0.93
2018-12-21T08:11:40.819Z,0.60
2018-12-21T08:14:08.966Z,3.13
2018-12-21T08:16:37.119Z,0.80
2018-12-21T08:19:05.262Z,1.10
2018-12-21T08:21:33.401Z,1.95
2018-12-21T08:24:01.605Z,3.30
2018-12-21T08:26:29.763Z,1.27
2018-12-21T08:28:58.046Z,3.47
2018-12-21T08:31:26.256Z,0.85
2018-12-21T08:33:54.445Z,1.67
2018-12-21T08:36:23.285Z,0.73
2018-12-21T08:38:51.567Z,3.40
2018-12-21T08:41:19.696Z,3.07
2018-12-21T08:43:47.883Z,1.73
2018-12-21T08:46:16.022Z,3.10
2018-12-21T08:48:44.176Z,3.02
2018-12-21T08:51:12.318Z,0.73
2018-12-21T08:53:40.491Z,5.30
2018-12-21T08:56:08.616Z,1.53
2018-12-21T08:58:37.963Z,3.50
2018-12-21T09:01:06.109Z,0.97
2018-12-21T09:03:34.282Z,1.47
2018-12-21T09:06:02.408Z,3.33
2018-12-21T09:08:30.588Z,0.80
2018-12-21T09:10:58.744Z,1.07
2018-12-21T09:13:26.923Z,1.40
2018-12-21T09:15:55.106Z,1.75
2018-12-21T09:18:23.242Z,1.30
2018-12-21T09:20:51.474Z,1.00
2018-12-21T09:23:20.161Z,1.90
2018-12-21T09:25:48.283Z,1.67
2018-12-21T09:28:16.433Z,2.07
2018-12-21T09:30:44.606Z,0.80
2018-12-21T09:33:12.901Z,2.63
2018-12-21T09:35:41.519Z,1.57
2018-12-21T09:38:09.909Z,1.40
2018-12-21T09:40:38.147Z,1.23
2018-12-21T09:43:06.339Z,2.37
2018-12-21T09:45:35.513Z,0.70
2018-12-21T09:48:03.769Z,1.67
2018-12-21T09:50:32.012Z,0.70
2018-12-21T09:53:00.132Z,0.67
2018-12-21T09:55:28.345Z,0.85
2018-12-21T09:57:56.478Z,1.83
2018-12-21T10:00:24.651Z,1.30
2018-12-21T10:02:52.860Z,0.73
2018-12-21T10:05:20.991Z,0.60
2018-12-21T10:07:49.178Z,0.90
2018-12-21T10:10:17.346Z,1.10
2018-12-21T10:12:45.452Z,0.72
2018-12-21T10:15:13.604Z,1.03
2018-12-21T10:17:41.762Z,0.43
2018-12-21T10:20:10.115Z,1.73
2018-12-21T10:22:38.272Z,1.37
2018-12-21T10:25:06.659Z,0.80
2018-12-21T10:27:34.777Z,0.47
2018-12-21T10:30:03.165Z,1.07
2018-12-21T10:32:31.382Z,0.70
2018-12-21T10:34:59.515Z,0.70
2018-12-21T10:37:27.703Z,0.60
2018-12-21T10:39:55.847Z,0.70
2018-12-21T10:42:24.156Z,1.43
2018-12-21T10:44:52.297Z,0.70
2018-12-21T10:47:20.456Z,0.90
2018-12-21T10:49:48.585Z,2.43
2018-12-21T10:52:16.767Z,0.88
2018-12-21T10:54:44.903Z,2.40
2018-12-21T10:57:13.097Z,1.37
2018-12-21T10:59:43.451Z,1.10
2018-12-21T11:02:11.551Z,0.63
2018-12-21T11:04:39.663Z,2.73
2018-12-21T11:07:07.808Z,2.20
2018-12-21T11:09:35.995Z,1.63
2018-12-21T11:12:04.196Z,1.00
2018-12-21T11:14:32.561Z,0.97
2018-12-21T11:17:01.772Z,1.05
2018-12-21T11:19:30.007Z,1.90
2018-12-21T11:21:58.376Z,1.30
2018-12-21T11:24:35.079Z,2.93
2018-12-21T11:26:56.756Z,1.50
2018-12-21T11:29:24.895Z,1.30
2018-12-21T11:31:53.077Z,2.50
2018-12-21T11:34:21.238Z,1.40
2018-12-21T11:36:49.428Z,3.73
2018-12-21T11:39:17.577Z,1.50
2018-12-21T11:41:45.832Z,2.52
2018-12-21T11:44:14.057Z,2.53
2018-12-21T11:49:16.607Z,1.77
2018-12-21T11:51:44.777Z,4.33
2018-12-21T11:54:12.987Z,2.10
2018-12-21T11:56:41.773Z,2.33
2018-12-21T11:59:09.919Z,2.40
2018-12-21T12:01:38.092Z,1.70
2018-12-21T12:04:06.246Z,2.27
2018-12-21T12:06:35.318Z,1.82
2018-12-21T12:09:06.298Z,5.13
2018-12-21T12:11:34.914Z,3.47
2018-12-21T12:14:03.033Z,3.40
2018-12-21T12:16:31.175Z,3.13
2018-12-21T12:18:59.338Z,2.47
2018-12-21T12:21:27.727Z,1.63
2018-12-21T12:23:56.108Z,2.93
2018-12-21T12:26:24.291Z,2.55
2018-12-21T12:28:52.428Z,1.60
2018-12-21T12:31:20.626Z,2.47
2018-12-21T12:33:49.391Z,4.47
2018-12-21T12:36:18.661Z,1.40
2018-12-21T12:38:46.823Z,0.90
2018-12-21T12:41:14.951Z,1.93
2018-12-21T12:43:43.106Z,1.43
2018-12-21T12:46:11.258Z,1.57
2018-12-21T12:48:39.391Z,2.17
2018-12-21T12:51:07.571Z,1.60
2018-12-21T12:53:35.707Z,1.23
2018-12-21T12:56:05.367Z,2.03
2018-12-21T12:58:33.789Z,3.77
2018-12-21T13:01:01.944Z,1.97
2018-12-21T13:03:30.117Z,1.13
2018-12-21T13:05:58.258Z,1.47
2018-12-21T13:08:26.422Z,0.95
2018-12-21T13:10:54.577Z,2.87
2018-12-21T13:13:22.760Z,1.00
2018-12-21T13:15:50.923Z,0.68
2018-12-21T13:18:19.051Z,2.73
2018-12-21T13:20:47.206Z,1.00
2018-12-21T13:23:15.401Z,1.97
2018-12-21T13:25:43.561Z,1.50
2018-12-21T13:28:11.771Z,1.27
2018-12-21T13:30:39.918Z,1.87
2018-12-21T13:33:08.140Z,0.80
2018-12-21T13:35:36.320Z,2.47
2018-12-21T13:38:04.455Z,1.13
2018-12-21T13:40:32.628Z,0.90
2018-12-21T13:43:00.770Z,1.03
2018-12-21T13:45:28.958Z,1.43
2018-12-21T13:47:57.097Z,0.93
2018-12-21T13:50:25.246Z,2.30
2018-12-21T13:52:53.400Z,1.40
2018-12-21T13:55:21.696Z,1.20
2018-12-21T13:57:49.873Z,1.62
2018-12-21T14:00:18.032Z,1.73
2018-12-21T14:02:46.314Z,1.23
2018-12-21T14:05:14.511Z,1.73
2018-12-21T14:07:42.749Z,1.70
2018-12-21T14:10:11.175Z,1.77
2018-12-21T14:12:39.345Z,3.03
2018-12-21T14:15:07.842Z,2.05
2018-12-21T14:17:36.000Z,2.95
2018-12-21T14:20:08.328Z,3.07
2018-12-21T14:22:36.473Z,2.53
2018-12-21T14:25:05.964Z,5.90
2018-12-21T14:27:34.224Z,3.70
2018-12-21T14:30:02.410Z,4.07
2018-12-21T14:32:30.623Z,5.23
2018-12-21T14:34:58.867Z,4.53
2018-12-21T14:37:27.038Z,7.40
2018-12-21T14:39:55.212Z,5.67
2018-12-21T14:42:23.387Z,9.13
2018-12-21T14:44:51.535Z,8.17
2018-12-21T14:47:19.772Z,12.95
2018-12-21T14:49:47.921Z,8.57
2018-12-21T14:52:16.090Z,8.23
2018-12-21T14:54:44.293Z,8.83
2018-12-21T14:57:12.455Z,8.97
2018-12-21T14:59:40.856Z,9.97
2018-12-21T15:02:09.016Z,13.43
2018-12-21T15:04:37.287Z,13.67
2018-12-21T15:07:05.584Z,15.88
2018-12-21T15:09:33.717Z,14.10
2018-12-21T15:12:01.981Z,13.03
2018-12-21T15:14:30.203Z,16.10
2018-12-21T15:16:58.474Z,21.00
2018-12-21T15:19:26.665Z,16.17
2018-12-21T15:21:54.772Z,15.78
2018-12-21T15:24:22.963Z,15.70
2018-12-21T15:26:51.111Z,21.80
2018-12-21T15:29:19.268Z,16.50
2018-12-21T15:31:47.455Z,21.37
2018-12-21T15:34:15.622Z,15.94
2018-12-21T15:36:43.800Z,16.10
2018-12-21T15:39:11.977Z,17.87
2018-12-21T15:41:40.143Z,18.70
2018-12-21T15:44:08.298Z,18.03
2018-12-21T15:46:36.433Z,17.20
2018-12-21T15:49:04.785Z,16.27
2018-12-21T15:51:32.945Z,21.10
2018-12-21T15:54:01.075Z,17.02
2018-12-21T15:56:29.299Z,17.98
2018-12-21T15:58:57.492Z,26.80
2018-12-21T16:01:25.635Z,27.87
2018-12-21T16:03:53.808Z,27.50
2018-12-21T16:06:21.938Z,21.87
2018-12-21T16:08:50.139Z,28.87
2018-12-21T16:11:18.276Z,27.53
2018-12-21T16:13:46.425Z,27.67
2018-12-21T16:16:14.589Z,29.27
2018-12-21T16:18:42.775Z,27.17
2018-12-21T16:21:10.974Z,29.40
2018-12-21T16:23:39.146Z,26.57
2018-12-21T16:26:07.330Z,26.40
2018-12-21T16:28:35.468Z,27.73
2018-12-21T16:31:03.737Z,29.90
2018-12-21T16:33:31.906Z,29.02
2018-12-21T16:36:00.101Z,27.00
2018-12-21T16:38:28.285Z,29.05
2018-12-21T16:40:56.559Z,30.10
2018-12-21T16:43:24.710Z,28.97
2018-12-21T16:45:52.851Z,26.23
2018-12-21T16:48:21.010Z,35.40
2018-12-21T16:50:49.153Z,27.77
2018-12-21T16:53:17.347Z,24.40
2018-12-21T16:55:45.570Z,29.30
2018-12-21T16:58:13.742Z,32.50
2018-12-21T17:00:42.031Z,24.17
2018-12-21T17:03:15.659Z,26.13
2018-12-21T17:05:40.375Z,36.63
2018-12-21T17:08:08.557Z,33.00
2018-12-21T17:10:36.820Z,32.73
2018-12-21T17:13:04.958Z,32.03
2018-12-21T17:15:33.142Z,34.27
2018-12-21T17:18:01.286Z,35.25
2018-12-21T17:20:29.493Z,37.33
2018-12-21T17:22:57.645Z,32.15
2018-12-21T17:25:25.814Z,32.50
2018-12-21T17:27:53.978Z,29.20
2018-12-21T17:30:22.153Z,28.10
2018-12-21T17:32:50.346Z,27.70
2018-12-21T17:35:18.502Z,32.43
2018-12-21T17:37:46.691Z,23.55
2018-12-21T17:40:14.833Z,29.12
2018-12-21T17:42:43.405Z,29.48
2018-12-21T17:45:11.599Z,23.93
2018-12-21T17:47:39.803Z,23.87
2018-12-21T17:50:08.570Z,24.50
2018-12-21T17:52:36.729Z,27.30
2018-12-21T17:55:06.350Z,19.20
2018-12-21T17:57:34.530Z,26.60
2018-12-21T18:00:03.915Z,19.50
2018-12-21T18:02:32.070Z,22.63
2018-12-21T18:05:00.195Z,29.63
2018-12-21T18:07:28.374Z,26.90
2018-12-21T18:09:56.553Z,23.55
2018-12-21T18:12:24.668Z,23.10
2018-12-21T18:14:52.901Z,23.90
2018-12-21T18:17:21.085Z,28.63
2018-12-21T18:19:49.258Z,20.53
2018-12-21T18:22:17.405Z,25.20
2018-12-21T18:24:45.605Z,26.77
2018-12-21T18:27:13.740Z,25.33
2018-12-21T18:29:42.185Z,22.48
2018-12-21T18:32:11.478Z,25.40
2018-12-21T18:34:39.661Z,26.87
2018-12-21T18:37:07.858Z,27.90
2018-12-21T18:39:36.102Z,26.10
2018-12-21T18:42:05.729Z,26.67
2018-12-21T18:44:34.181Z,27.00
2018-12-21T18:47:02.463Z,30.12
2018-12-21T18:49:30.652Z,24.45
2018-12-21T18:51:59.836Z,34.30
2018-12-21T18:54:28.283Z,34.97
2018-12-21T18:56:56.760Z,30.95
2018-12-21T18:59:24.940Z,28.30
2018-12-21T19:01:53.106Z,24.93
2018-12-21T19:04:21.265Z,27.73
2018-12-21T19:06:49.676Z,25.97
2018-12-21T19:09:17.890Z,24.47
2018-12-21T19:11:46.079Z,24.92
2018-12-21T19:14:14.247Z,31.77
2018-12-21T19:16:42.401Z,22.47
2018-12-21T19:19:10.569Z,30.83
2018-12-21T19:21:39.598Z,25.53
2018-12-21T19:24:07.772Z,23.60
2018-12-21T19:26:35.987Z,28.25
2018-12-21T19:29:04.145Z,27.40
2018-12-21T19:31:32.292Z,26.97
2018-12-21T19:34:00.457Z,24.45
2018-12-21T19:36:28.578Z,29.25
2018-12-21T19:38:56.749Z,29.40
2018-12-21T19:41:24.921Z,29.03
2018-12-21T19:43:53.090Z,28.70
2018-12-21T19:46:21.268Z,27.67
2018-12-21T19:48:49.417Z,30.47
2018-12-21T19:51:17.535Z,34.87
2018-12-21T19:53:45.806Z,33.45
2018-12-21T19:56:17.080Z,37.70
2018-12-21T19:58:45.216Z,34.37
2018-12-21T20:01:13.367Z,39.80
2018-12-21T20:03:41.486Z,28.57
2018-12-21T20:06:09.743Z,32.87
2018-12-21T20:08:37.915Z,34.00
2018-12-21T20:11:07.279Z,42.73
2018-12-21T20:13:35.414Z,31.85
2018-12-21T20:16:03.566Z,35.60
2018-12-21T20:18:31.705Z,36.98
2018-12-21T20:20:59.886Z,33.93
2018-12-21T20:23:28.147Z,34.23
2018-12-21T20:25:56.309Z,38.93
2018-12-21T20:28:24.459Z,27.20
2018-12-21T20:30:52.646Z,23.97
2018-12-21T20:33:20.910Z,28.13
2018-12-21T20:35:49.160Z,30.55
2018-12-21T20:38:21.318Z,31.23
2018-12-21T20:40:47.544Z,36.93
2018-12-21T20:43:15.659Z,25.80
2018-12-21T20:45:43.853Z,33.13
2018-12-21T20:48:12.033Z,32.10
2018-12-21T20:50:41.357Z,31.67
2018-12-21T20:53:10.035Z,23.18
2018-12-21T20:55:38.179Z,31.60
2018-12-21T20:58:07.773Z,37.17
2018-12-21T21:00:35.925Z,31.65
2018-12-21T21:03:04.094Z,29.40
2018-12-21T21:05:32.231Z,32.50
2018-12-21T21:08:00.419Z,34.37
2018-12-21T21:10:28.552Z,33.93
2018-12-21T21:12:56.708Z,35.33
2018-12-21T21:15:24.909Z,34.90
2018-12-21T21:17:53.133Z,32.07
2018-12-21T21:20:21.298Z,33.93
2018-12-21T21:22:49.433Z,31.97
2018-12-21T21:25:17.575Z,32.80
2018-12-21T21:27:45.731Z,33.23
2018-12-21T21:30:17.341Z,34.37
2018-12-21T21:32:45.496Z,33.03
2018-12-21T21:35:13.741Z,39.48
2018-12-21T21:37:41.919Z,33.02
2018-12-21T21:40:15.962Z,36.03
2018-12-21T21:42:45.603Z,38.30
2018-12-21T21:45:13.748Z,38.73
2018-12-21T21:47:41.977Z,30.80
2018-12-21T21:50:10.459Z,39.83
2018-12-21T21:52:38.608Z,35.40
2018-12-21T21:55:06.963Z,40.40
2018-12-21T21:57:39.157Z,34.20
2018-12-21T22:00:10.527Z,36.70
2018-12-21T22:02:38.666Z,36.45
2018-12-21T22:05:06.984Z,36.10
2018-12-21T22:07:36.213Z,38.27
2018-12-21T22:10:08.284Z,42.37
2018-12-21T22:12:36.510Z,46.33
2018-12-21T22:15:06.283Z,37.17
2018-12-21T22:17:34.446Z,33.97
2018-12-21T22:20:03.126Z,42.33
2018-12-21T22:22:31.262Z,35.33
2018-12-21T22:24:59.407Z,41.08
2018-12-21T22:27:27.682Z,36.07
2018-12-21T22:29:55.940Z,37.85
2018-12-21T22:32:24.432Z,42.23
2018-12-21T22:34:52.672Z,35.00
2018-12-21T22:37:20.830Z,39.70
2018-12-21T22:39:48.988Z,43.17
2018-12-21T22:42:17.115Z,46.20
2018-12-21T22:44:45.270Z,42.85
2018-12-21T22:47:13.426Z,41.00
2018-12-21T22:49:41.612Z,34.50
2018-12-21T22:52:09.852Z,46.20
2018-12-21T22:54:38.033Z,42.47
2018-12-21T22:57:06.186Z,45.77
2018-12-21T22:59:34.350Z,37.37
2018-12-21T23:02:02.541Z,47.20
2018-12-21T23:04:30.688Z,49.10
2018-12-21T23:06:58.893Z,44.98
2018-12-21T23:09:27.082Z,39.63
2018-12-21T23:11:55.260Z,44.10
2018-12-21T23:14:23.409Z,46.23
2018-12-21T23:16:51.547Z,46.87
2018-12-21T23:19:19.721Z,45.47
2018-12-21T23:21:47.830Z,46.13
2018-12-21T23:24:17.531Z,50.53
2018-12-21T23:26:45.870Z,45.73
2018-12-21T23:29:14.041Z,46.07
2018-12-21T23:31:42.658Z,38.83
2018-12-21T23:34:10.817Z,38.37
2018-12-21T23:36:38.958Z,43.07
2018-12-21T23:39:07.279Z,52.43
2018-12-21T23:41:36.570Z,37.53
2018-12-21T23:44:04.852Z,41.63
2018-12-21T23:46:33.052Z,44.23
2018-12-21T23:49:01.185Z,45.20
2018-12-21T23:51:29.331Z,38.87
2018-12-21T23:53:57.457Z,46.33
2018-12-21T23:56:25.610Z,45.17
2018-12-21T23:58:53.894Z,45.58
